sensor_id;sensor_type;location;lat;lon;timestamp;P1;durP1;ratioP1;P2;durP2;ratioP2
73900;SDS011;62235;52.160;7.526;2022-12-29T00:01:29;11.95;;;9.57;;
73900;SDS011;62235;52.160;7.526;2022-12-29T00:03:55;11.07;;;9.98;;
73900;SDS011;62235;52.160;7.526;2022-12-29T00:06:20;11.40;;;9.00;;
73900;SDS011;62235;52.160;7.526;2022-12-29T00:08:46;10.32;;;8.40;;
73900;SDS011;62235;52.160;7.526;2022-12-29T00:11:12;9.80;;;7.10;;
73900;SDS011;62235;52.160;7.526;2022-12-29T00:13:39;10.45;;;7.55;;
73900;SDS011;62235;52.160;7.526;2022-12-29T00:16:23;10.70;;;8.38;;
73900;SDS011;62235;52.160;7.526;2022-12-29T00:18:49;11.57;;;6.72;;
73900;SDS011;62235;52.160;7.526;2022-12-29T00:21:15;9.65;;;7.22;;
73900;SDS011;62235;52.160;7.526;2022-12-29T00:24:03;10.05;;;6.57;;
73900;SDS011;62235;52.160;7.526;2022-12-29T00:26:53;9.30;;;7.15;;
73900;SDS011;62235;52.160;7.526;2022-12-29T00:29:40;8.80;;;5.75;;
73900;SDS011;62235;52.160;7.526;2022-12-29T00:32:24;8.18;;;6.65;;
73900;SDS011;62235;52.160;7.526;2022-12-29T00:35:09;11.75;;;6.10;;
73900;SDS011;62235;52.160;7.526;2022-12-29T00:37:37;8.55;;;6.88;;
73900;SDS011;62235;52.160;7.526;2022-12-29T00:40:23;8.77;;;5.20;;
73900;SDS011;62235;52.160;7.526;2022-12-29T00:43:07;8.60;;;5.78;;
73900;SDS011;62235;52.160;7.526;2022-12-29T00:45:51;9.55;;;5.47;;
73900;SDS011;62235;52.160;7.526;2022-12-29T00:48:16;8.00;;;6.23;;
73900;SDS011;62235;52.160;7.526;2022-12-29T00:51:04;7.22;;;6.18;;
73900;SDS011;62235;52.160;7.526;2022-12-29T00:53:30;7.97;;;4.70;;
73900;SDS011;62235;52.160;7.526;2022-12-29T00:55:55;6.77;;;5.00;;
73900;SDS011;62235;52.160;7.526;2022-12-29T00:58:20;9.07;;;6.10;;
73900;SDS011;62235;52.160;7.526;2022-12-29T01:00:46;5.68;;;5.05;;
73900;SDS011;62235;52.160;7.526;2022-12-29T01:03:11;6.60;;;5.17;;
73900;SDS011;62235;52.160;7.526;2022-12-29T01:05:36;6.10;;;4.47;;
73900;SDS011;62235;52.160;7.526;2022-12-29T01:08:02;6.20;;;5.60;;
73900;SDS011;62235;52.160;7.526;2022-12-29T01:10:27;6.25;;;4.70;;
73900;SDS011;62235;52.160;7.526;2022-12-29T01:12:53;6.93;;;4.82;;
73900;SDS011;62235;52.160;7.526;2022-12-29T01:15:18;6.22;;;4.88;;
73900;SDS011;62235;52.160;7.526;2022-12-29T01:17:43;6.65;;;4.72;;
73900;SDS011;62235;52.160;7.526;2022-12-29T01:20:09;5.33;;;4.23;;
73900;SDS011;62235;52.160;7.526;2022-12-29T01:22:35;5.80;;;4.60;;
73900;SDS011;62235;52.160;7.526;2022-12-29T01:25:02;5.53;;;4.35;;
73900;SDS011;62235;52.160;7.526;2022-12-29T01:27:27;8.05;;;4.95;;
73900;SDS011;62235;52.160;7.526;2022-12-29T01:29:53;5.67;;;5.07;;
73900;SDS011;62235;52.160;7.526;2022-12-29T01:32:18;5.65;;;4.72;;
73900;SDS011;62235;52.160;7.526;2022-12-29T01:34:44;5.32;;;4.43;;
73900;SDS011;62235;52.160;7.526;2022-12-29T01:37:09;7.70;;;5.88;;
73900;SDS011;62235;52.160;7.526;2022-12-29T01:39:34;8.43;;;5.53;;
73900;SDS011;62235;52.160;7.526;2022-12-29T01:41:59;8.17;;;5.90;;
73900;SDS011;62235;52.160;7.526;2022-12-29T01:47:19;7.28;;;6.15;;
73900;SDS011;62235;52.160;7.526;2022-12-29T01:49:57;7.75;;;6.20;;
73900;SDS011;62235;52.160;7.526;2022-12-29T01:52:24;8.20;;;6.72;;
73900;SDS011;62235;52.160;7.526;2022-12-29T01:54:52;7.03;;;5.95;;
73900;SDS011;62235;52.160;7.526;2022-12-29T01:57:21;8.02;;;6.43;;
73900;SDS011;62235;52.160;7.526;2022-12-29T02:00:13;9.55;;;7.68;;
73900;SDS011;62235;52.160;7.526;2022-12-29T02:02:38;9.88;;;8.77;;
73900;SDS011;62235;52.160;7.526;2022-12-29T02:05:07;10.48;;;7.13;;
73900;SDS011;62235;52.160;7.526;2022-12-29T02:07:36;10.07;;;7.40;;
73900;SDS011;62235;52.160;7.526;2022-12-29T02:10:02;9.35;;;7.20;;
73900;SDS011;62235;52.160;7.526;2022-12-29T02:12:28;7.75;;;6.10;;
73900;SDS011;62235;52.160;7.526;2022-12-29T02:14:55;6.60;;;5.60;;
73900;SDS011;62235;52.160;7.526;2022-12-29T02:17:41;8.07;;;6.13;;
73900;SDS011;62235;52.160;7.526;2022-12-29T02:31:24;7.00;;;6.30;;
73900;SDS011;62235;52.160;7.526;2022-12-29T02:34:06;5.32;;;3.55;;
73900;SDS011;62235;52.160;7.526;2022-12-29T02:39:23;5.03;;;4.55;;
73900;SDS011;62235;52.160;7.526;2022-12-29T02:42:17;5.38;;;4.50;;
73900;SDS011;62235;52.160;7.526;2022-12-29T02:44:52;5.22;;;4.10;;
73900;SDS011;62235;52.160;7.526;2022-12-29T02:52:34;3.78;;;3.38;;
73900;SDS011;62235;52.160;7.526;2022-12-29T02:55:02;3.65;;;3.25;;
73900;SDS011;62235;52.160;7.526;2022-12-29T02:57:29;3.25;;;2.72;;
73900;SDS011;62235;52.160;7.526;2022-12-29T03:00:16;3.17;;;2.80;;
73900;SDS011;62235;52.160;7.526;2022-12-29T03:08:21;2.00;;;1.70;;
73900;SDS011;62235;52.160;7.526;2022-12-29T03:10:58;2.05;;;1.52;;
73900;SDS011;62235;52.160;7.526;2022-12-29T03:16:53;2.17;;;1.60;;
73900;SDS011;62235;52.160;7.526;2022-12-29T03:19:16;1.92;;;1.55;;
73900;SDS011;62235;52.160;7.526;2022-12-29T03:21:44;2.03;;;1.40;;
73900;SDS011;62235;52.160;7.526;2022-12-29T03:24:32;2.38;;;1.25;;
73900;SDS011;62235;52.160;7.526;2022-12-29T03:27:00;2.47;;;1.30;;
73900;SDS011;62235;52.160;7.526;2022-12-29T03:29:29;1.63;;;0.88;;
73900;SDS011;62235;52.160;7.526;2022-12-29T03:31:56;1.95;;;1.00;;
73900;SDS011;62235;52.160;7.526;2022-12-29T03:34:23;2.30;;;1.23;;
73900;SDS011;62235;52.160;7.526;2022-12-29T03:37:02;2.38;;;1.10;;
73900;SDS011;62235;52.160;7.526;2022-12-29T03:39:31;3.60;;;1.00;;
73900;SDS011;62235;52.160;7.526;2022-12-29T03:42:02;1.23;;;0.90;;
73900;SDS011;62235;52.160;7.526;2022-12-29T03:44:36;2.08;;;0.90;;
73900;SDS011;62235;52.160;7.526;2022-12-29T03:47:04;1.70;;;0.75;;
73900;SDS011;62235;52.160;7.526;2022-12-29T03:49:30;2.88;;;0.65;;
73900;SDS011;62235;52.160;7.526;2022-12-29T03:51:56;1.55;;;0.70;;
73900;SDS011;62235;52.160;7.526;2022-12-29T03:54:21;1.60;;;0.85;;
73900;SDS011;62235;52.160;7.526;2022-12-29T03:56:46;2.72;;;0.98;;
73900;SDS011;62235;52.160;7.526;2022-12-29T03:59:12;2.60;;;1.07;;
73900;SDS011;62235;52.160;7.526;2022-12-29T04:01:37;1.90;;;0.90;;
73900;SDS011;62235;52.160;7.526;2022-12-29T04:04:03;0.73;;;0.47;;
73900;SDS011;62235;52.160;7.526;2022-12-29T04:06:28;1.55;;;0.90;;
73900;SDS011;62235;52.160;7.526;2022-12-29T04:08:53;1.67;;;0.80;;
73900;SDS011;62235;52.160;7.526;2022-12-29T04:11:19;1.50;;;0.60;;
73900;SDS011;62235;52.160;7.526;2022-12-29T04:13:45;2.38;;;0.70;;
73900;SDS011;62235;52.160;7.526;2022-12-29T04:16:10;1.50;;;0.65;;
73900;SDS011;62235;52.160;7.526;2022-12-29T04:18:36;2.73;;;1.07;;
73900;SDS011;62235;52.160;7.526;2022-12-29T04:21:01;2.35;;;0.77;;
73900;SDS011;62235;52.160;7.526;2022-12-29T04:23:28;2.53;;;0.98;;
73900;SDS011;62235;52.160;7.526;2022-12-29T04:25:54;2.22;;;0.90;;
73900;SDS011;62235;52.160;7.526;2022-12-29T04:28:19;1.27;;;0.80;;
73900;SDS011;62235;52.160;7.526;2022-12-29T04:30:45;2.65;;;0.82;;
73900;SDS011;62235;52.160;7.526;2022-12-29T04:33:11;2.60;;;0.90;;
73900;SDS011;62235;52.160;7.526;2022-12-29T04:35:36;4.00;;;0.85;;
73900;SDS011;62235;52.160;7.526;2022-12-29T04:38:02;1.70;;;0.70;;
73900;SDS011;62235;52.160;7.526;2022-12-29T04:40:27;1.98;;;0.73;;
73900;SDS011;62235;52.160;7.526;2022-12-29T04:42:53;2.20;;;0.93;;
73900;SDS011;62235;52.160;7.526;2022-12-29T04:45:18;2.72;;;1.02;;
73900;SDS011;62235;52.160;7.526;2022-12-29T04:47:44;1.97;;;1.00;;
73900;SDS011;62235;52.160;7.526;2022-12-29T04:50:09;2.57;;;1.10;;
73900;SDS011;62235;52.160;7.526;2022-12-29T04:52:35;2.83;;;1.10;;
73900;SDS011;62235;52.160;7.526;2022-12-29T04:55:00;1.05;;;0.70;;
73900;SDS011;62235;52.160;7.526;2022-12-29T04:57:26;2.42;;;0.93;;
73900;SDS011;62235;52.160;7.526;2022-12-29T04:59:51;2.17;;;0.90;;
73900;SDS011;62235;52.160;7.526;2022-12-29T05:02:17;2.17;;;0.98;;
73900;SDS011;62235;52.160;7.526;2022-12-29T05:04:42;2.22;;;1.02;;
73900;SDS011;62235;52.160;7.526;2022-12-29T05:07:08;2.27;;;0.67;;
73900;SDS011;62235;52.160;7.526;2022-12-29T05:09:33;1.30;;;0.40;;
73900;SDS011;62235;52.160;7.526;2022-12-29T05:11:59;1.20;;;0.60;;
73900;SDS011;62235;52.160;7.526;2022-12-29T05:14:24;1.05;;;0.47;;
73900;SDS011;62235;52.160;7.526;2022-12-29T05:16:49;1.45;;;0.40;;
73900;SDS011;62235;52.160;7.526;2022-12-29T05:19:15;1.80;;;0.40;;
73900;SDS011;62235;52.160;7.526;2022-12-29T05:21:41;2.10;;;0.68;;
73900;SDS011;62235;52.160;7.526;2022-12-29T05:24:07;3.72;;;0.65;;
73900;SDS011;62235;52.160;7.526;2022-12-29T05:26:32;0.57;;;0.35;;
73900;SDS011;62235;52.160;7.526;2022-12-29T05:28:58;1.83;;;0.40;;
73900;SDS011;62235;52.160;7.526;2022-12-29T05:31:23;1.38;;;0.43;;
73900;SDS011;62235;52.160;7.526;2022-12-29T05:33:48;2.10;;;0.47;;
73900;SDS011;62235;52.160;7.526;2022-12-29T05:36:13;1.83;;;0.50;;
73900;SDS011;62235;52.160;7.526;2022-12-29T05:38:39;0.95;;;0.30;;
73900;SDS011;62235;52.160;7.526;2022-12-29T05:41:04;1.40;;;0.20;;
73900;SDS011;62235;52.160;7.526;2022-12-29T05:43:29;0.80;;;0.30;;
73900;SDS011;62235;52.160;7.526;2022-12-29T05:45:55;1.13;;;0.30;;
73900;SDS011;62235;52.160;7.526;2022-12-29T05:48:21;1.23;;;0.30;;
73900;SDS011;62235;52.160;7.526;2022-12-29T05:50:47;0.98;;;0.40;;
73900;SDS011;62235;52.160;7.526;2022-12-29T05:53:13;3.22;;;0.30;;
73900;SDS011;62235;52.160;7.526;2022-12-29T05:55:38;0.68;;;0.30;;
73900;SDS011;62235;52.160;7.526;2022-12-29T05:58:03;2.03;;;0.40;;
73900;SDS011;62235;52.160;7.526;2022-12-29T06:00:29;1.87;;;0.20;;
73900;SDS011;62235;52.160;7.526;2022-12-29T06:02:54;1.50;;;0.10;;
73900;SDS011;62235;52.160;7.526;2022-12-29T06:05:19;0.83;;;0.33;;
73900;SDS011;62235;52.160;7.526;2022-12-29T06:07:44;2.40;;;0.20;;
73900;SDS011;62235;52.160;7.526;2022-12-29T06:10:10;2.85;;;0.63;;
73900;SDS011;62235;52.160;7.526;2022-12-29T06:12:35;2.13;;;0.40;;
73900;SDS011;62235;52.160;7.526;2022-12-29T06:15:00;2.57;;;0.50;;
73900;SDS011;62235;52.160;7.526;2022-12-29T06:17:26;1.27;;;0.40;;
73900;SDS011;62235;52.160;7.526;2022-12-29T06:19:51;3.60;;;0.40;;
73900;SDS011;62235;52.160;7.526;2022-12-29T06:22:16;3.17;;;0.63;;
73900;SDS011;62235;52.160;7.526;2022-12-29T06:24:42;2.97;;;0.60;;
73900;SDS011;62235;52.160;7.526;2022-12-29T06:27:07;1.90;;;0.70;;
73900;SDS011;62235;52.160;7.526;2022-12-29T06:29:32;2.70;;;0.65;;
73900;SDS011;62235;52.160;7.526;2022-12-29T06:31:58;2.03;;;0.52;;
73900;SDS011;62235;52.160;7.526;2022-12-29T06:34:23;5.70;;;0.60;;
73900;SDS011;62235;52.160;7.526;2022-12-29T06:36:49;2.83;;;0.60;;
73900;SDS011;62235;52.160;7.526;2022-12-29T06:39:15;2.83;;;0.50;;
73900;SDS011;62235;52.160;7.526;2022-12-29T06:41:41;4.63;;;0.60;;
73900;SDS011;62235;52.160;7.526;2022-12-29T06:44:06;5.00;;;0.67;;
73900;SDS011;62235;52.160;7.526;2022-12-29T06:46:31;3.10;;;0.60;;
73900;SDS011;62235;52.160;7.526;2022-12-29T06:48:57;1.43;;;0.60;;
73900;SDS011;62235;52.160;7.526;2022-12-29T06:51:22;2.97;;;0.83;;
73900;SDS011;62235;52.160;7.526;2022-12-29T06:53:47;2.33;;;0.43;;
73900;SDS011;62235;52.160;7.526;2022-12-29T06:56:12;2.37;;;0.67;;
73900;SDS011;62235;52.160;7.526;2022-12-29T06:58:38;1.47;;;0.50;;
73900;SDS011;62235;52.160;7.526;2022-12-29T07:01:03;2.90;;;0.63;;
73900;SDS011;62235;52.160;7.526;2022-12-29T07:03:29;3.38;;;0.50;;
73900;SDS011;62235;52.160;7.526;2022-12-29T07:05:54;1.13;;;0.40;;
73900;SDS011;62235;52.160;7.526;2022-12-29T07:08:20;5.32;;;0.77;;
73900;SDS011;62235;52.160;7.526;2022-12-29T07:10:45;3.28;;;0.60;;
73900;SDS011;62235;52.160;7.526;2022-12-29T07:13:11;1.75;;;0.73;;
73900;SDS011;62235;52.160;7.526;2022-12-29T07:15:36;1.93;;;0.70;;
73900;SDS011;62235;52.160;7.526;2022-12-29T07:18:02;4.75;;;0.63;;
73900;SDS011;62235;52.160;7.526;2022-12-29T07:20:28;3.97;;;0.80;;
73900;SDS011;62235;52.160;7.526;2022-12-29T07:22:54;5.38;;;0.50;;
73900;SDS011;62235;52.160;7.526;2022-12-29T07:25:19;3.67;;;0.57;;
73900;SDS011;62235;52.160;7.526;2022-12-29T07:27:45;4.10;;;0.90;;
73900;SDS011;62235;52.160;7.526;2022-12-29T07:30:10;2.92;;;0.65;;
73900;SDS011;62235;52.160;7.526;2022-12-29T07:32:36;4.07;;;0.82;;
73900;SDS011;62235;52.160;7.526;2022-12-29T07:35:01;3.73;;;1.07;;
73900;SDS011;62235;52.160;7.526;2022-12-29T07:37:27;3.30;;;0.55;;
73900;SDS011;62235;52.160;7.526;2022-12-29T07:39:52;2.22;;;0.60;;
73900;SDS011;62235;52.160;7.526;2022-12-29T07:42:18;6.13;;;0.80;;
73900;SDS011;62235;52.160;7.526;2022-12-29T07:44:43;2.67;;;0.60;;
73900;SDS011;62235;52.160;7.526;2022-12-29T07:47:09;1.77;;;0.40;;
73900;SDS011;62235;52.160;7.526;2022-12-29T07:49:34;2.00;;;0.40;;
73900;SDS011;62235;52.160;7.526;2022-12-29T07:51:59;5.90;;;1.13;;
73900;SDS011;62235;52.160;7.526;2022-12-29T07:54:25;3.80;;;0.70;;
73900;SDS011;62235;52.160;7.526;2022-12-29T07:56:50;2.10;;;0.40;;
73900;SDS011;62235;52.160;7.526;2022-12-29T07:59:16;2.65;;;0.75;;
73900;SDS011;62235;52.160;7.526;2022-12-29T08:01:41;5.93;;;0.80;;
73900;SDS011;62235;52.160;7.526;2022-12-29T08:04:07;5.10;;;0.88;;
73900;SDS011;62235;52.160;7.526;2022-12-29T08:06:32;4.07;;;0.80;;
73900;SDS011;62235;52.160;7.526;2022-12-29T08:08:57;2.33;;;0.60;;
73900;SDS011;62235;52.160;7.526;2022-12-29T08:11:25;2.85;;;0.40;;
73900;SDS011;62235;52.160;7.526;2022-12-29T08:13:50;5.03;;;0.60;;
73900;SDS011;62235;52.160;7.526;2022-12-29T08:16:15;2.30;;;0.50;;
73900;SDS011;62235;52.160;7.526;2022-12-29T08:18:41;5.13;;;0.80;;
73900;SDS011;62235;52.160;7.526;2022-12-29T08:21:06;3.97;;;0.83;;
73900;SDS011;62235;52.160;7.526;2022-12-29T08:23:31;4.32;;;0.93;;
73900;SDS011;62235;52.160;7.526;2022-12-29T08:26:00;3.20;;;0.70;;
73900;SDS011;62235;52.160;7.526;2022-12-29T08:28:27;3.22;;;0.75;;
73900;SDS011;62235;52.160;7.526;2022-12-29T08:30:53;6.38;;;0.80;;
73900;SDS011;62235;52.160;7.526;2022-12-29T08:33:18;4.78;;;0.90;;
73900;SDS011;62235;52.160;7.526;2022-12-29T08:35:44;3.92;;;0.90;;
73900;SDS011;62235;52.160;7.526;2022-12-29T08:38:09;2.33;;;0.80;;
73900;SDS011;62235;52.160;7.526;2022-12-29T08:40:36;4.70;;;0.90;;
73900;SDS011;62235;52.160;7.526;2022-12-29T08:43:01;3.28;;;0.80;;
73900;SDS011;62235;52.160;7.526;2022-12-29T08:45:27;4.27;;;0.50;;
73900;SDS011;62235;52.160;7.526;2022-12-29T08:47:52;2.93;;;0.60;;
73900;SDS011;62235;52.160;7.526;2022-12-29T08:50:17;4.27;;;0.63;;
73900;SDS011;62235;52.160;7.526;2022-12-29T08:52:43;4.17;;;0.70;;
73900;SDS011;62235;52.160;7.526;2022-12-29T08:55:08;5.10;;;0.87;;
73900;SDS011;62235;52.160;7.526;2022-12-29T08:57:33;4.60;;;0.80;;
73900;SDS011;62235;52.160;7.526;2022-12-29T08:59:59;1.50;;;0.33;;
73900;SDS011;62235;52.160;7.526;2022-12-29T09:02:24;5.77;;;1.00;;
73900;SDS011;62235;52.160;7.526;2022-12-29T09:04:50;3.60;;;0.50;;
73900;SDS011;62235;52.160;7.526;2022-12-29T09:07:15;3.17;;;0.82;;
73900;SDS011;62235;52.160;7.526;2022-12-29T09:09:40;3.60;;;0.87;;
73900;SDS011;62235;52.160;7.526;2022-12-29T09:12:06;3.83;;;0.50;;
73900;SDS011;62235;52.160;7.526;2022-12-29T09:14:31;3.72;;;0.60;;
73900;SDS011;62235;52.160;7.526;2022-12-29T09:16:57;3.57;;;0.60;;
73900;SDS011;62235;52.160;7.526;2022-12-29T09:19:40;5.78;;;1.10;;
73900;SDS011;62235;52.160;7.526;2022-12-29T09:22:06;5.53;;;0.80;;
73900;SDS011;62235;52.160;7.526;2022-12-29T09:24:31;2.03;;;0.30;;
73900;SDS011;62235;52.160;7.526;2022-12-29T09:26:56;6.23;;;0.90;;
73900;SDS011;62235;52.160;7.526;2022-12-29T09:29:22;4.40;;;1.00;;
73900;SDS011;62235;52.160;7.526;2022-12-29T09:31:47;3.80;;;0.80;;
73900;SDS011;62235;52.160;7.526;2022-12-29T09:34:12;6.80;;;1.10;;
73900;SDS011;62235;52.160;7.526;2022-12-29T09:36:37;4.60;;;0.80;;
73900;SDS011;62235;52.160;7.526;2022-12-29T09:39:03;6.30;;;1.20;;
73900;SDS011;62235;52.160;7.526;2022-12-29T09:41:47;4.00;;;0.67;;
73900;SDS011;62235;52.160;7.526;2022-12-29T09:44:18;5.80;;;2.05;;
73900;SDS011;62235;52.160;7.526;2022-12-29T09:46:48;8.35;;;1.33;;
73900;SDS011;62235;52.160;7.526;2022-12-29T09:49:26;4.85;;;1.08;;
73900;SDS011;62235;52.160;7.526;2022-12-29T09:51:57;2.38;;;0.82;;
73900;SDS011;62235;52.160;7.526;2022-12-29T09:55:08;3.25;;;0.63;;
73900;SDS011;62235;52.160;7.526;2022-12-29T09:57:22;6.57;;;0.93;;
73900;SDS011;62235;52.160;7.526;2022-12-29T09:59:50;6.13;;;1.05;;
73900;SDS011;62235;52.160;7.526;2022-12-29T10:04:56;3.67;;;0.82;;
73900;SDS011;62235;52.160;7.526;2022-12-29T10:09:57;5.63;;;1.20;;
73900;SDS011;62235;52.160;7.526;2022-12-29T10:18:07;10.57;;;0.73;;
73900;SDS011;62235;52.160;7.526;2022-12-29T10:20:49;3.85;;;1.10;;
73900;SDS011;62235;52.160;7.526;2022-12-29T10:25:56;4.38;;;0.77;;
73900;SDS011;62235;52.160;7.526;2022-12-29T10:31:35;3.92;;;0.60;;
73900;SDS011;62235;52.160;7.526;2022-12-29T10:34:10;4.05;;;1.40;;
73900;SDS011;62235;52.160;7.526;2022-12-29T10:36:42;4.07;;;1.00;;
73900;SDS011;62235;52.160;7.526;2022-12-29T10:41:48;4.28;;;0.88;;
73900;SDS011;62235;52.160;7.526;2022-12-29T10:44:16;4.40;;;0.93;;
73900;SDS011;62235;52.160;7.526;2022-12-29T10:46:42;5.32;;;0.93;;
73900;SDS011;62235;52.160;7.526;2022-12-29T10:49:14;5.78;;;1.10;;
73900;SDS011;62235;52.160;7.526;2022-12-29T10:51:42;7.22;;;1.20;;
73900;SDS011;62235;52.160;7.526;2022-12-29T10:57:00;3.72;;;0.50;;
73900;SDS011;62235;52.160;7.526;2022-12-29T10:59:32;4.38;;;1.00;;
73900;SDS011;62235;52.160;7.526;2022-12-29T11:04:38;2.90;;;0.68;;
73900;SDS011;62235;52.160;7.526;2022-12-29T11:07:20;5.75;;;1.00;;
73900;SDS011;62235;52.160;7.526;2022-12-29T11:09:46;8.35;;;1.42;;
73900;SDS011;62235;52.160;7.526;2022-12-29T11:12:19;3.67;;;0.90;;
73900;SDS011;62235;52.160;7.526;2022-12-29T11:14:45;4.03;;;0.70;;
73900;SDS011;62235;52.160;7.526;2022-12-29T11:17:14;4.82;;;0.80;;
73900;SDS011;62235;52.160;7.526;2022-12-29T11:19:40;4.07;;;0.55;;
73900;SDS011;62235;52.160;7.526;2022-12-29T11:22:21;7.97;;;1.10;;
73900;SDS011;62235;52.160;7.526;2022-12-29T11:24:51;3.30;;;1.08;;
73900;SDS011;62235;52.160;7.526;2022-12-29T11:29:51;6.40;;;0.85;;
73900;SDS011;62235;52.160;7.526;2022-12-29T11:32:24;5.75;;;1.25;;
73900;SDS011;62235;52.160;7.526;2022-12-29T11:34:51;6.15;;;1.50;;
73900;SDS011;62235;52.160;7.526;2022-12-29T11:37:22;4.88;;;0.85;;
73900;SDS011;62235;52.160;7.526;2022-12-29T11:42:51;5.18;;;0.93;;
73900;SDS011;62235;52.160;7.526;2022-12-29T11:45:19;4.13;;;0.70;;
73900;SDS011;62235;52.160;7.526;2022-12-29T11:47:47;3.60;;;0.70;;
73900;SDS011;62235;52.160;7.526;2022-12-29T11:50:33;5.85;;;1.40;;
73900;SDS011;62235;52.160;7.526;2022-12-29T11:53:06;4.97;;;1.33;;
73900;SDS011;62235;52.160;7.526;2022-12-29T11:55:49;3.35;;;0.80;;
73900;SDS011;62235;52.160;7.526;2022-12-29T11:58:16;4.22;;;1.10;;
73900;SDS011;62235;52.160;7.526;2022-12-29T12:00:41;4.50;;;0.65;;
73900;SDS011;62235;52.160;7.526;2022-12-29T12:03:19;6.03;;;1.00;;
73900;SDS011;62235;52.160;7.526;2022-12-29T12:05:47;5.30;;;0.88;;
73900;SDS011;62235;52.160;7.526;2022-12-29T12:08:19;5.15;;;0.80;;
73900;SDS011;62235;52.160;7.526;2022-12-29T12:13:19;4.07;;;0.73;;
73900;SDS011;62235;52.160;7.526;2022-12-29T12:19:53;4.00;;;0.85;;
73900;SDS011;62235;52.160;7.526;2022-12-29T12:22:03;4.88;;;0.98;;
73900;SDS011;62235;52.160;7.526;2022-12-29T12:24:46;3.78;;;0.60;;
73900;SDS011;62235;52.160;7.526;2022-12-29T12:30:08;3.90;;;0.73;;
73900;SDS011;62235;52.160;7.526;2022-12-29T12:32:54;4.25;;;0.85;;
73900;SDS011;62235;52.160;7.526;2022-12-29T12:35:26;6.65;;;1.20;;
73900;SDS011;62235;52.160;7.526;2022-12-29T12:43:45;6.72;;;1.58;;
73900;SDS011;62235;52.160;7.526;2022-12-29T12:46:16;2.60;;;1.00;;
73900;SDS011;62235;52.160;7.526;2022-12-29T12:51:51;5.28;;;1.02;;
73900;SDS011;62235;52.160;7.526;2022-12-29T12:57:31;6.05;;;1.23;;
73900;SDS011;62235;52.160;7.526;2022-12-29T13:00:09;6.97;;;1.77;;
73900;SDS011;62235;52.160;7.526;2022-12-29T13:23:56;6.28;;;1.60;;
73900;SDS011;62235;52.160;7.526;2022-12-29T13:26:47;5.70;;;1.02;;
73900;SDS011;62235;52.160;7.526;2022-12-29T13:35:19;9.57;;;1.77;;
73900;SDS011;62235;52.160;7.526;2022-12-29T13:37:57;6.65;;;1.55;;
73900;SDS011;62235;52.160;7.526;2022-12-29T13:40:45;4.90;;;1.08;;
73900;SDS011;62235;52.160;7.526;2022-12-29T13:43:13;6.30;;;1.52;;
73900;SDS011;62235;52.160;7.526;2022-12-29T13:45:41;5.50;;;1.30;;
73900;SDS011;62235;52.160;7.526;2022-12-29T13:48:21;6.00;;;1.08;;
73900;SDS011;62235;52.160;7.526;2022-12-29T13:56:24;4.80;;;1.13;;
73900;SDS011;62235;52.160;7.526;2022-12-29T13:59:03;4.60;;;1.17;;
73900;SDS011;62235;52.160;7.526;2022-12-29T14:01:34;6.32;;;1.30;;
73900;SDS011;62235;52.160;7.526;2022-12-29T14:04:03;6.32;;;1.45;;
73900;SDS011;62235;52.160;7.526;2022-12-29T14:06:36;8.10;;;1.13;;
73900;SDS011;62235;52.160;7.526;2022-12-29T14:12:27;3.10;;;1.23;;
73900;SDS011;62235;52.160;7.526;2022-12-29T14:15:29;6.63;;;1.55;;
73900;SDS011;62235;52.160;7.526;2022-12-29T14:18:05;4.93;;;1.20;;
73900;SDS011;62235;52.160;7.526;2022-12-29T14:20:37;6.03;;;1.30;;
73900;SDS011;62235;52.160;7.526;2022-12-29T14:28:31;7.00;;;1.30;;
73900;SDS011;62235;52.160;7.526;2022-12-29T14:36:36;3.38;;;0.80;;
73900;SDS011;62235;52.160;7.526;2022-12-29T14:39:03;3.40;;;0.60;;
73900;SDS011;62235;52.160;7.526;2022-12-29T14:41:30;7.40;;;1.23;;
73900;SDS011;62235;52.160;7.526;2022-12-29T14:44:19;5.97;;;1.05;;
73900;SDS011;62235;52.160;7.526;2022-12-29T14:46:49;1.25;;;0.50;;
73900;SDS011;62235;52.160;7.526;2022-12-29T14:49:22;4.72;;;1.13;;
73900;SDS011;62235;52.160;7.526;2022-12-29T14:51:51;5.25;;;0.95;;
73900;SDS011;62235;52.160;7.526;2022-12-29T14:56:59;5.32;;;1.25;;
73900;SDS011;62235;52.160;7.526;2022-12-29T14:59:25;5.43;;;1.10;;
73900;SDS011;62235;52.160;7.526;2022-12-29T15:01:52;3.90;;;1.13;;
73900;SDS011;62235;52.160;7.526;2022-12-29T15:04:19;5.43;;;0.98;;
73900;SDS011;62235;52.160;7.526;2022-12-29T15:06:47;5.43;;;0.90;;
73900;SDS011;62235;52.160;7.526;2022-12-29T15:11:54;5.43;;;0.90;;
73900;SDS011;62235;52.160;7.526;2022-12-29T15:17:00;5.53;;;1.00;;
73900;SDS011;62235;52.160;7.526;2022-12-29T15:19:26;7.25;;;1.10;;
73900;SDS011;62235;52.160;7.526;2022-12-29T15:21:52;6.70;;;1.35;;
73900;SDS011;62235;52.160;7.526;2022-12-29T15:24:18;10.68;;;3.35;;
73900;SDS011;62235;52.160;7.526;2022-12-29T15:26:47;15.43;;;3.63;;
73900;SDS011;62235;52.160;7.526;2022-12-29T15:34:40;6.40;;;1.60;;
73900;SDS011;62235;52.160;7.526;2022-12-29T15:37:06;8.52;;;1.50;;
73900;SDS011;62235;52.160;7.526;2022-12-29T15:39:32;13.15;;;4.15;;
73900;SDS011;62235;52.160;7.526;2022-12-29T15:42:13;7.72;;;1.95;;
73900;SDS011;62235;52.160;7.526;2022-12-29T15:44:45;8.32;;;1.95;;
73900;SDS011;62235;52.160;7.526;2022-12-29T15:47:12;5.78;;;1.83;;
73900;SDS011;62235;52.160;7.526;2022-12-29T15:49:44;6.10;;;1.40;;
73900;SDS011;62235;52.160;7.526;2022-12-29T15:52:13;4.90;;;1.15;;
73900;SDS011;62235;52.160;7.526;2022-12-29T15:54:42;5.85;;;1.48;;
73900;SDS011;62235;52.160;7.526;2022-12-29T15:57:15;3.65;;;1.17;;
73900;SDS011;62235;52.160;7.526;2022-12-29T15:59:46;8.40;;;1.70;;
73900;SDS011;62235;52.160;7.526;2022-12-29T16:02:12;4.18;;;1.10;;
73900;SDS011;62235;52.160;7.526;2022-12-29T16:04:37;5.03;;;1.43;;
73900;SDS011;62235;52.160;7.526;2022-12-29T16:07:04;4.30;;;1.30;;
73900;SDS011;62235;52.160;7.526;2022-12-29T16:09:31;1.50;;;0.50;;
73900;SDS011;62235;52.160;7.526;2022-12-29T16:15:03;5.13;;;1.60;;
73900;SDS011;62235;52.160;7.526;2022-12-29T16:17:32;4.75;;;1.35;;
73900;SDS011;62235;52.160;7.526;2022-12-29T16:20:02;4.25;;;1.30;;
73900;SDS011;62235;52.160;7.526;2022-12-29T16:22:33;4.28;;;1.52;;
73900;SDS011;62235;52.160;7.526;2022-12-29T16:25:01;3.63;;;1.00;;
73900;SDS011;62235;52.160;7.526;2022-12-29T16:27:36;5.68;;;1.38;;
73900;SDS011;62235;52.160;7.526;2022-12-29T16:30:07;6.00;;;1.48;;
73900;SDS011;62235;52.160;7.526;2022-12-29T16:32:46;8.45;;;1.50;;
73900;SDS011;62235;52.160;7.526;2022-12-29T16:35:17;4.18;;;1.15;;
73900;SDS011;62235;52.160;7.526;2022-12-29T16:37:45;6.82;;;1.45;;
73900;SDS011;62235;52.160;7.526;2022-12-29T16:47:48;4.97;;;1.30;;
73900;SDS011;62235;52.160;7.526;2022-12-29T16:50:30;2.38;;;1.33;;
73900;SDS011;62235;52.160;7.526;2022-12-29T16:52:56;6.40;;;1.42;;
73900;SDS011;62235;52.160;7.526;2022-12-29T16:55:21;3.90;;;1.30;;
73900;SDS011;62235;52.160;7.526;2022-12-29T16:57:47;4.60;;;1.23;;
73900;SDS011;62235;52.160;7.526;2022-12-29T17:00:20;8.13;;;1.00;;
73900;SDS011;62235;52.160;7.526;2022-12-29T17:02:46;6.07;;;1.27;;
73900;SDS011;62235;52.160;7.526;2022-12-29T17:05:14;5.72;;;1.60;;
73900;SDS011;62235;52.160;7.526;2022-12-29T17:07:40;2.38;;;1.10;;
73900;SDS011;62235;52.160;7.526;2022-12-29T17:10:05;5.10;;;1.48;;
73900;SDS011;62235;52.160;7.526;2022-12-29T17:12:31;3.35;;;0.80;;
73900;SDS011;62235;52.160;7.526;2022-12-29T17:17:40;4.47;;;1.20;;
73900;SDS011;62235;52.160;7.526;2022-12-29T17:20:17;5.97;;;1.60;;
73900;SDS011;62235;52.160;7.526;2022-12-29T17:22:43;4.15;;;1.55;;
73900;SDS011;62235;52.160;7.526;2022-12-29T17:25:13;3.90;;;1.50;;
73900;SDS011;62235;52.160;7.526;2022-12-29T17:27:41;3.70;;;1.20;;
73900;SDS011;62235;52.160;7.526;2022-12-29T17:30:16;2.95;;;0.77;;
73900;SDS011;62235;52.160;7.526;2022-12-29T17:32:43;5.45;;;1.30;;
73900;SDS011;62235;52.160;7.526;2022-12-29T17:35:13;6.95;;;1.17;;